Time;durP1;ratioP1;P1;durP2;ratioP2;P2;SDS_P1;SDS_P2;PMS_P1;PMS_P2;Temp;Humidity;BMP_temperature;BMP_pressure;BME280_temperature;BME280_humidity;BME280_pressure;Samples;Min_cycle;Max_cycle;Signal;HPM_P1;HPM_P2
2022/07/13 00:00:35;;;;;;;3.73;0.90;;;;;;;22.22;45.02;100409.97;12214111;19;20487;-81
2022/07/13 00:04:37;;;;;;;2.35;0.88;;;;;;;22.13;45.36;100409.00;12206127;19;20014;-81
2022/07/13 00:08:39;;;;;;;4.03;1.05;;;;;;;22.06;45.41;100405.78;12182625;19;20006;-80
2022/07/13 00:12:40;;;;;;;1.48;0.98;;;;;;;21.97;45.77;100410.44;12199266;19;20080;-81
2022/07/13 00:16:42;;;;;;;1.20;0.80;;;;;;;21.89;46.47;100412.00;12202044;19;20028;-81
2022/07/13 00:20:45;;;;;;;1.35;0.80;;;;;;;21.80;46.77;100419.47;12178919;19;20006;-82
2022/07/13 00:24:46;;;;;;;;;;;;;;;21.70;46.71;100426.13;12197909;19;20018;-82
2022/07/13 00:28:48;;;;;;;1.88;1.02;;;;;;;21.66;46.57;100425.09;12210841;19;20000;-81
2022/07/13 00:32:50;;;;;;;1.05;0.90;;;;;;;21.62;46.26;100424.03;12191517;19;20082;-80
2022/07/13 00:36:53;;;;;;;1.35;0.82;;;;;;;21.61;46.92;100422.38;12212865;19;20018;-80
2022/07/13 00:40:54;;;;;;;2.80;1.10;;;;;;;21.55;47.31;100429.22;12211834;19;20023;-81
2022/07/13 00:44:56;;;;;;;2.38;1.10;;;;;;;21.48;47.89;100417.56;12181397;19;20342;-80
2022/07/13 00:48:58;;;;;;;4.40;1.13;;;;;;;21.39;48.76;100407.06;12200174;19;20069;-81
2022/07/13 00:53:00;;;;;;;4.35;0.85;;;;;;;21.33;48.08;100399.84;12190499;19;20033;-81
2022/07/13 00:57:04;;;;;;;2.30;0.93;;;;;;;21.24;48.58;100404.50;12199650;19;20378;-80
2022/07/13 01:01:05;;;;;;;1.77;0.90;;;;;;;21.19;48.81;100398.97;12209993;19;20050;-80
2022/07/13 01:05:10;;;;;;;3.03;1.20;;;;;;;21.14;48.95;100399.06;12166723;19;20003;-81
2022/07/13 01:09:11;;;;;;;2.30;1.00;;;;;;;21.06;48.92;100394.13;12207654;19;20015;-81
2022/07/13 01:13:16;;;;;;;1.67;1.27;;;;;;;20.96;49.50;100388.72;12203478;19;20006;-81
2022/07/13 01:17:19;;;;;;;4.40;1.05;;;;;;;20.89;50.02;100389.94;12182896;19;20018;-80
2022/07/13 01:21:20;;;;;;;1.95;1.23;;;;;;;20.86;50.00;100396.16;12208863;19;20070;-82
2022/07/13 01:25:22;;;;;;;5.50;1.00;;;;;;;20.80;50.34;100386.16;12204171;19;20060;-81
2022/07/13 01:29:24;;;;;;;1.13;1.03;;;;;;;20.74;50.84;100378.16;12181675;19;20027;-81
2022/07/13 01:33:26;;;;;;;3.40;1.02;;;;;;;20.67;50.75;100378.53;12194599;19;20033;-80
2022/07/13 01:37:28;;;;;;;2.50;1.10;;;;;;;20.62;50.88;100373.84;12205044;19;20024;-81
2022/07/13 01:41:29;;;;;;;2.35;1.30;;;;;;;20.57;51.15;100367.50;12181507;19;20078;-81
2022/07/13 01:45:31;;;;;;;1.35;1.20;;;;;;;20.57;51.52;100376.72;12192559;19;20007;-80
2022/07/13 01:49:33;;;;;;;1.88;1.23;;;;;;;20.57;51.41;100367.50;12201654;19;20028;-82
2022/07/13 01:53:34;;;;;;;1.45;1.30;;;;;;;20.57;51.92;100364.69;12183178;19;20085;-81
2022/07/13 01:57:36;;;;;;;4.35;1.40;;;;;;;20.61;51.31;100363.78;12199721;19;20010;-80
2022/07/13 02:01:38;;;;;;;6.43;1.20;;;;;;;20.64;51.23;100365.97;12204719;19;20017;-80
2022/07/13 02:05:39;;;;;;;2.88;1.20;;;;;;;20.66;51.33;100362.88;12175752;19;20032;-81
2022/07/13 02:09:41;;;;;;;1.95;0.98;;;;;;;20.61;51.54;100358.19;12195678;19;20010;-81
2022/07/13 02:13:46;;;;;;;1.20;0.93;;;;;;;20.53;51.62;100355.25;12195595;19;20406;-81
2022/07/13 02:17:48;;;;;;;0.90;0.80;;;;;;;20.46;52.16;100353.63;12177067;19;20011;-81
2022/07/13 02:21:50;;;;;;;2.05;1.02;;;;;;;20.42;52.35;100360.94;12193055;19;20015;-80
2022/07/13 02:25:51;;;;;;;2.83;1.20;;;;;;;20.37;52.60;100352.63;12204559;19;20010;-80
2022/07/13 02:29:53;;;;;;;1.05;0.90;;;;;;;20.35;52.72;100356.88;12168440;19;20088;-80
2022/07/13 02:33:55;;;;;;;6.88;1.20;;;;;;;20.31;52.50;100337.03;12199904;19;20507;-81
2022/07/13 02:37:56;;;;;;;1.38;0.88;;;;;;;20.31;52.01;100345.44;12204459;19;20023;-80
2022/07/13 02:42:00;;;;;;;2.00;1.20;;;;;;;20.34;51.78;100332.81;12178473;19;20014;-80
2022/07/13 02:46:01;;;;;;;2.22;0.93;;;;;;;20.37;51.36;100335.81;12211535;19;20010;-80
2022/07/13 02:50:03;;;;;;;1.38;0.90;;;;;;;20.39;51.48;100322.38;12218434;19;20055;-80
2022/07/13 02:54:05;;;;;;;2.22;1.17;;;;;;;20.39;51.31;100325.16;12230169;19;20416;-80
2022/07/13 02:58:07;;;;;;;2.80;1.23;;;;;;;20.34;51.47;100332.81;12209451;19;20007;-81
2022/07/13 03:02:09;;;;;;;3.35;1.00;;;;;;;20.21;51.54;100342.78;12185249;19;20345;-81
2022/07/13 03:06:11;;;;;;;2.53;1.15;;;;;;;20.03;52.14;100344.44;12203097;19;20006;-82
2022/07/13 03:10:13;;;;;;;1.58;1.00;;;;;;;19.80;53.31;100341.34;12207351;19;20009;-80
2022/07/13 03:14:16;;;;;;;1.67;0.80;;;;;;;19.62;54.06;100355.25;12176780;19;20010;-81
2022/07/13 03:18:18;;;;;;;4.32;0.80;;;;;;;19.44;54.87;100356.84;12208286;19;20010;-80
2022/07/13 03:22:22;;;;;;;1.98;1.25;;;;;;;19.36;55.48;100352.72;12211362;19;20014;-80
2022/07/13 03:26:25;;;;;;;4.13;1.20;;;;;;;19.35;55.74;100356.66;12193284;19;20699;-80
2022/07/13 03:30:28;;;;;;;3.20;1.10;;;;;;;19.33;56.48;100358.91;12207140;19;20050;-80
2022/07/13 03:34:30;;;;;;;2.88;1.10;;;;;;;19.32;56.54;100360.03;12206768;19;20011;-81
2022/07/13 03:38:33;;;;;;;2.15;1.40;;;;;;;19.33;56.10;100348.59;12183027;19;20027;-80
2022/07/13 03:42:37;;;;;;;2.90;1.20;;;;;;;19.40;55.71;100337.03;12200980;19;20018;-80
2022/07/13 03:46:40;;;;;;;4.72;1.50;;;;;;;19.51;55.15;100343.34;12206742;19;20015;-80
2022/07/13 03:50:42;;;;;;;3.03;1.10;;;;;;;19.65;55.36;100335.13;12191193;19;20007;-81
2022/07/13 03:54:44;;;;;;;2.72;1.40;;;;;;;19.76;54.78;100356.25;12207946;19;20018;-81
2022/07/13 03:58:46;;;;;;;2.63;1.25;;;;;;;19.84;54.73;100363.97;12201367;19;20014;-81
2022/07/13 04:02:49;;;;;;;4.05;1.20;;;;;;;19.86;54.89;100358.91;12177081;19;20034;-80
2022/07/13 04:06:52;;;;;;;1.48;1.10;;;;;;;19.91;55.06;100355.22;12200464;19;20015;-81
2022/07/13 04:10:54;;;;;;;2.87;1.20;;;;;;;19.98;54.89;100350.09;12200557;19;20015;-81
2022/07/13 04:14:56;;;;;;;1.70;1.10;;;;;;;20.10;54.99;100335.66;12177655;19;20003;-81
2022/07/13 04:18:58;;;;;;;3.00;1.70;;;;;;;20.22;54.59;100338.84;12203880;19;20392;-81
2022/07/13 04:23:00;;;;;;;1.65;1.08;;;;;;;20.34;54.58;100352.38;12204331;19;20275;-80
2022/07/13 04:27:02;;;;;;;3.65;1.50;;;;;;;20.44;54.37;100338.25;12191034;19;20055;-81
2022/07/13 04:31:04;;;;;;;1.70;1.13;;;;;;;20.54;54.52;100348.50;12206323;19;20010;-83
2022/07/13 04:35:09;;;;;;;4.82;1.80;;;;;;;20.63;54.05;100352.28;12185880;19;20011;-80
2022/07/13 04:39:14;;;;;;;4.13;1.38;;;;;;;20.73;53.98;100352.09;12208460;19;20051;-81
2022/07/13 04:43:17;;;;;;;2.83;1.35;;;;;;;20.84;54.53;100353.59;12206415;19;20345;-81
2022/07/13 04:47:19;;;;;;;2.90;1.42;;;;;;;20.92;54.24;100347.31;12180854;19;20337;-82
2022/07/13 04:51:21;;;;;;;4.67;1.70;;;;;;;20.99;53.75;100341.31;12207483;19;20010;-82
2022/07/13 04:55:24;;;;;;;1.95;1.50;;;;;;;21.09;53.67;100343.09;12208340;19;20006;-81
2022/07/13 04:59:26;;;;;;;3.47;1.38;;;;;;;21.19;52.94;100348.53;12174918;19;20032;-80
2022/07/13 05:03:27;;;;;;;2.05;1.08;;;;;;;21.34;53.40;100345.44;12203478;19;20031;-81
2022/07/13 05:07:29;;;;;;;1.88;1.30;;;;;;;21.52;53.22;100340.09;12193840;19;20416;-81
2022/07/13 05:11:39;;;;;;;2.53;1.60;;;;;;;21.68;52.77;100349.84;12169525;19;20769;-79
2022/07/13 05:15:41;;;;;;;4.32;1.73;;;;;;;21.81;53.19;100343.44;12205810;19;20073;-81
2022/07/13 05:19:43;;;;;;;2.47;1.60;;;;;;;21.94;53.14;100346.53;12208001;19;20525;-81
2022/07/13 05:23:46;;;;;;;4.60;1.65;;;;;;;22.03;52.92;100347.47;12177769;19;20006;-81
2022/07/13 05:27:48;;;;;;;1.87;1.13;;;;;;;22.08;52.15;100336.97;12203136;19;20052;-81
2022/07/13 05:31:49;;;;;;;2.65;1.40;;;;;;;22.13;51.77;100338.00;12200277;19;20011;-81
2022/07/13 05:35:51;;;;;;;2.28;1.23;;;;;;;22.13;51.68;100344.47;12182573;19;20018;-81
2022/07/13 05:39:53;;;;;;;3.03;1.67;;;;;;;22.19;51.32;100340.41;12200088;19;20009;-82
2022/07/13 05:43:55;;;;;;;3.88;1.70;;;;;;;22.29;51.13;100331.75;12203504;19;20054;-81
2022/07/13 05:47:58;;;;;;;3.28;1.45;;;;;;;22.42;50.85;100340.47;12180933;19;20114;-80
2022/07/13 05:52:00;;;;;;;2.05;1.27;;;;;;;22.52;50.45;100334.63;12194751;19;20464;-82
2022/07/13 05:56:05;;;;;;;3.30;1.55;;;;;;;22.60;50.27;100325.41;12181424;19;20078;-82
2022/07/13 06:00:11;;;;;;;2.65;1.48;;;;;;;22.72;50.27;100325.66;12200307;19;20495;-82
2022/07/13 06:04:13;;;;;;;4.00;1.45;;;;;;;22.90;49.78;100332.28;12194617;19;20082;-81
2022/07/13 06:08:15;;;;;;;4.13;1.27;;;;;;;23.11;49.35;100332.59;12175397;19;20006;-82
2022/07/13 06:12:17;;;;;;;2.63;1.55;;;;;;;23.30;48.64;100328.75;12195180;19;20014;-81
2022/07/13 06:16:19;;;;;;;2.20;1.60;;;;;;;23.50;48.57;100330.13;12197667;19;20510;-81
2022/07/13 06:20:21;;;;;;;2.50;1.48;;;;;;;23.65;47.89;100327.75;12192763;19;20701;-81
2022/07/13 06:24:25;;;;;;;3.97;1.58;;;;;;;23.80;47.27;100334.13;12213656;19;20014;-81
2022/07/13 06:28:26;;;;;;;2.63;1.33;;;;;;;24.10;47.27;100336.00;12206558;19;20023;-81
2022/07/13 06:32:28;;;;;;;6.57;1.70;;;;;;;24.40;46.81;100330.59;12180979;19;20247;-81
2022/07/13 06:36:31;;;;;;;2.83;1.60;;;;;;;24.64;46.48;100329.31;12211750;19;20007;-82
2022/07/13 06:40:33;;;;;;;4.50;1.55;;;;;;;24.78;46.11;100322.34;12210190;19;20024;-81
2022/07/13 06:44:36;;;;;;;3.85;1.38;;;;;;;24.93;45.91;100325.81;12181708;19;20011;-81
2022/07/13 06:48:41;;;;;;;6.00;1.60;;;;;;;25.01;45.77;100330.59;12213645;19;20006;-82
2022/07/13 06:52:44;;;;;;;2.60;1.40;;;;;;;25.06;45.55;100335.22;12210117;19;20011;-81
2022/07/13 06:56:45;;;;;;;5.63;1.55;;;;;;;25.18;44.25;100333.41;12193890;19;20487;-81
2022/07/13 07:00:48;;;;;;;2.33;1.30;;;;;;;25.44;44.57;100347.44;12208879;19;20547;-82
2022/07/13 07:04:51;;;;;;;;;;;;;;;25.61;43.86;100340.91;12203993;19;20010;-82
2022/07/13 07:08:53;;;;;;;2.00;1.40;;;;;;;25.70;43.69;100349.34;12185093;19;19907;-81
2022/07/13 07:12:55;;;;;;;3.50;1.30;;;;;;;25.78;43.75;100345.63;12207641;19;20381;-82
2022/07/13 07:16:58;;;;;;;1.63;1.25;;;;;;;25.90;43.14;100354.25;12204899;19;20011;-82
2022/07/13 07:21:00;;;;;;;;;;;;;;;25.99;42.77;100344.91;12180418;19;20074;-82
2022/07/13 07:25:02;;;;;;;3.70;1.50;;;;;;;26.00;42.94;100355.00;12205675;19;19915;-83
2022/07/13 07:29:03;;;;;;;4.00;1.48;;;;;;;26.00;41.66;100353.03;12188017;19;20022;-81
2022/07/13 07:33:05;;;;;;;4.97;1.57;;;;;;;26.26;41.56;100340.75;12188402;19;20007;-83
2022/07/13 07:37:07;;;;;;;6.63;1.30;;;;;;;26.29;41.49;100337.22;12209003;19;20062;-83
2022/07/13 07:41:10;;;;;;;2.80;1.20;;;;;;;26.40;41.43;100334.84;12183569;19;20007;-83
2022/07/13 07:45:12;;;;;;;2.65;1.40;;;;;;;26.61;40.41;100327.22;12213323;19;20397;-82
2022/07/13 07:49:14;;;;;;;2.15;1.25;;;;;;;27.19;39.52;100322.53;12212236;19;20098;-82
2022/07/13 07:53:17;;;;;;;6.63;1.45;;;;;;;27.86;38.51;100328.06;12182202;19;20041;-83
2022/07/13 07:57:18;;;;;;;2.55;1.38;;;;;;;28.08;38.19;100321.94;12204865;19;20053;-83
2022/07/13 08:01:21;;;;;;;5.32;1.20;;;;;;;28.15;37.89;100324.97;12206049;19;20011;-84
2022/07/13 08:05:27;;;;;;;1.63;0.98;;;;;;;27.91;37.95;100323.00;12189517;19;20018;-83
2022/07/13 08:09:29;;;;;;;3.30;1.23;;;;;;;28.29;37.32;100324.63;12206743;19;20365;-82
2022/07/13 08:13:30;;;;;;;4.07;1.38;;;;;;;28.79;36.17;100320.50;12203997;19;20077;-83
2022/07/13 08:17:32;;;;;;;3.50;0.90;;;;;;;29.07;35.76;100314.81;12184130;19;20035;-83
2022/07/13 08:21:34;;;;;;;3.08;1.10;;;;;;;29.17;35.33;100321.16;12198703;19;20042;-84
2022/07/13 08:25:37;;;;;;;2.75;1.02;;;;;;;29.71;34.20;100323.41;12210076;19;20346;-83
2022/07/13 08:29:40;;;;;;;4.22;1.10;;;;;;;30.22;33.71;100317.78;12176802;19;20021;-83
2022/07/13 08:42:23;;;;;;;1.40;1.17;;;;;;;30.76;32.34;100316.13;12178260;19;20033;-85
2022/07/13 08:46:27;;;;;;;2.38;0.82;;;;;;;31.02;31.59;100318.28;12198639;19;20010;-85
2022/07/13 08:50:31;;;;;;;;;;;;;;;31.16;31.64;100307.19;12186860;19;20084;-86
2022/07/13 08:54:32;;;;;;;4.20;1.05;;;;;;;30.96;32.08;100311.25;12203145;19;19932;-82
2022/07/13 08:58:36;;;;;;;1.58;1.10;;;;;;;30.74;32.62;100299.41;12184692;19;20003;-83
2022/07/13 09:02:38;;;;;;;2.83;1.30;;;;;;;30.93;32.54;100303.47;12179163;19;20031;-82
2022/07/13 09:06:43;;;;;;;;;;;;;;;31.00;31.71;100309.34;12198745;19;20031;-86
2022/07/13 09:10:59;;;;;;;5.35;1.10;;;;;;;31.14;31.26;100311.59;12202847;19;19927;-84
2022/07/13 09:15:07;;;;;;;2.42;1.10;;;;;;;31.08;31.38;100305.41;12178468;19;20018;-83
2022/07/13 09:19:09;;;;;;;3.53;1.20;;;;;;;31.04;31.75;100311.03;12213814;19;20006;-83
2022/07/13 09:23:11;;;;;;;2.65;1.00;;;;;;;30.76;31.53;100314.09;12191801;19;20062;-84
2022/07/13 09:27:14;;;;;;;7.07;1.15;;;;;;;30.79;32.07;100301.19;12207417;19;20017;-83
2022/07/13 09:31:17;;;;;;;3.63;1.20;;;;;;;31.27;31.21;100302.53;12193459;19;20070;-82
2022/07/13 09:35:41;;;;;;;5.20;1.00;;;;;;;31.50;30.58;100302.56;12187657;19;20003;-83
2022/07/13 09:40:06;;;;;;;2.13;1.10;;;;;;;31.49;30.33;100291.53;12211155;19;20431;-82
2022/07/13 09:48:29;;;;;;;1.90;1.20;;;;;;;31.88;30.01;100295.03;12203582;19;20007;-82
2022/07/13 09:52:31;;;;;;;;;;;;;;;31.87;29.34;100287.72;12202101;19;20003;-81
2022/07/13 09:56:51;;;;;;;1.00;0.80;;;;;;;32.24;29.19;100287.06;12192717;19;19915;-81
2022/07/13 10:00:55;;;;;;;1.92;1.00;;;;;;;32.61;28.45;100290.03;12219351;19;20007;-81
2022/07/13 10:04:58;;;;;;;2.53;1.20;;;;;;;32.63;28.46;100289.63;12208289;19;20111;-81
2022/07/13 10:09:06;;;;;;;2.95;1.27;;;;;;;33.09;27.77;100290.22;12208516;19;20051;-82
2022/07/13 10:13:12;;;;;;;2.78;1.30;;;;;;;33.34;27.62;100287.59;12256150;19;20007;-82
2022/07/13 10:17:16;;;;;;;4.47;1.50;;;;;;;33.39;27.94;100285.63;12244516;19;20014;-82
2022/07/13 10:21:55;;;;;;;3.05;1.27;;;;;;;33.40;27.42;100279.50;12266909;19;20007;-81
2022/07/13 10:25:57;;;;;;;4.45;1.50;;;;;;;33.65;28.02;100268.34;12265624;19;20002;-80
2022/07/13 10:30:18;;;;;;;4.57;1.30;;;;;;;33.87;26.72;100269.31;12239132;19;20002;-81
2022/07/13 10:34:53;;;;;;;4.13;1.60;;;;;;;34.00;25.75;100270.66;12258800;19;20011;-80
2022/07/13 10:39:10;;;;;;;4.53;1.45;;;;;;;33.77;26.48;100267.22;12245265;19;20031;-80
2022/07/13 10:43:14;;;;;;;5.85;1.50;;;;;;;33.24;26.97;100270.38;12233766;19;20015;-81
2022/07/13 10:47:20;;;;;;;5.60;1.63;;;;;;;33.10;27.28;100266.16;12216002;19;20010;-81
2022/07/13 10:51:22;;;;;;;1.63;1.20;;;;;;;33.17;27.18;100261.72;12245871;19;20002;-81
2022/07/13 10:55:34;;;;;;;5.88;1.48;;;;;;;33.21;27.43;100249.16;12237424;19;20006;-81
2022/07/13 11:00:19;;;;;;;2.35;1.42;;;;;;;33.45;26.74;100244.88;12223487;19;20055;-81
2022/07/13 11:04:46;;;;;;;2.70;1.40;;;;;;;33.52;26.98;100242.09;12242352;19;20006;-81
2022/07/13 11:09:07;;;;;;;5.60;1.40;;;;;;;33.70;26.49;100252.84;12234605;19;20006;-81
2022/07/13 11:13:14;;;;;;;2.40;1.20;;;;;;;33.69;26.62;100245.50;12237416;19;20018;-81
2022/07/13 11:17:23;;;;;;;5.13;1.60;;;;;;;33.91;25.95;100243.59;12226284;19;20013;-81
2022/07/13 11:21:25;;;;;;;4.53;1.55;;;;;;;34.58;25.58;100233.81;12241973;19;20054;-81
2022/07/13 11:25:40;;;;;;;5.32;1.50;;;;;;;35.31;24.75;100220.06;12260921;19;20006;-81
2022/07/13 11:29:57;;;;;;;7.75;1.38;;;;;;;35.53;23.62;100214.34;12223953;19;20110;-81
2022/07/13 11:34:04;;;;;;;;;;;;;;;35.47;23.18;100210.25;12228633;19;20006;-81
2022/07/13 11:38:08;;;;;;;4.75;1.60;;;;;;;35.83;22.34;100208.19;12188662;19;19915;-81
2022/07/13 11:42:10;;;;;;;3.40;1.15;;;;;;;36.22;20.94;100202.34;12214538;19;20059;-82
2022/07/13 11:46:12;;;;;;;5.80;1.15;;;;;;;36.36;20.75;100201.47;12254621;19;20057;-81
2022/07/13 11:50:15;;;;;;;4.28;1.30;;;;;;;36.61;20.54;100206.31;12233226;19;20014;-83
2022/07/13 11:54:21;;;;;;;2.65;1.27;;;;;;;36.80;19.05;100200.06;12247313;19;20010;-82
2022/07/13 11:58:32;;;;;;;3.85;1.00;;;;;;;36.69;19.23;100185.75;12256433;19;20026;-82
2022/07/13 12:02:36;;;;;;;2.22;0.90;;;;;;;36.32;18.26;100192.09;12197861;19;20014;-82
2022/07/13 12:06:41;;;;;;;2.67;0.98;;;;;;;36.31;18.86;100186.75;12208931;19;20017;-82
2022/07/13 12:10:43;;;;;;;2.92;1.17;;;;;;;36.40;19.65;100189.97;12213598;19;20006;-82
2022/07/13 12:14:46;;;;;;;1.98;1.20;;;;;;;36.92;19.35;100187.25;12182211;19;20062;-82
2022/07/13 12:19:02;;;;;;;3.20;1.27;;;;;;;37.30;19.65;100175.88;12207998;19;20082;-82
2022/07/13 12:23:08;;;;;;;1.92;1.05;;;;;;;37.49;18.39;100174.53;12209879;19;20011;-82
2022/07/13 12:27:31;;;;;;;7.40;1.35;;;;;;;38.21;17.91;100171.69;12189205;19;20027;-82
2022/07/13 12:31:33;;;;;;;2.72;0.90;;;;;;;38.30;16.46;100160.47;12201351;19;20066;-82
2022/07/13 12:35:40;;;;;;;3.72;1.00;;;;;;;38.17;17.08;100165.19;12187215;19;20014;-82
2022/07/13 12:39:43;;;;;;;2.00;0.93;;;;;;;38.77;16.25;100160.66;12195258;19;20102;-83
2022/07/13 12:43:56;;;;;;;2.35;0.93;;;;;;;39.42;15.71;100143.19;12212487;19;20014;-83
2022/07/13 12:47:58;;;;;;;;;;;;;;;39.62;15.78;100144.03;12181238;19;20010;-83
2022/07/13 12:52:10;;;;;;;3.30;1.13;;;;;;;39.74;14.67;100138.88;12202610;19;19911;-83
2022/07/13 12:56:20;;;;;;;2.03;0.65;;;;;;;40.25;14.83;100122.19;12193733;19;20019;-83
2022/07/13 13:00:25;;;;;;;0.65;0.50;;;;;;;40.57;13.42;100124.31;12203265;19;20028;-83
2022/07/13 13:04:29;;;;;;;0.90;0.70;;;;;;;41.18;13.67;100125.78;12204471;19;20033;-83
2022/07/13 13:08:30;;;;;;;1.65;0.75;;;;;;;42.49;13.34;100113.81;12190543;19;20046;-83
2022/07/13 13:12:33;;;;;;;2.53;1.67;;;;;;;42.99;12.78;100112.22;12208561;19;20002;-84
2022/07/13 13:16:35;;;;;;;3.33;1.13;;;;;;;43.94;12.70;100103.47;12214950;19;20018;-84
2022/07/13 13:20:37;;;;;;;4.00;0.75;;;;;;;44.12;12.21;100102.78;12190554;19;20086;-84
2022/07/13 13:24:39;;;;;;;2.92;0.80;;;;;;;44.00;12.32;100089.13;12241679;19;20532;-84
2022/07/13 13:33:02;;;;;;;2.42;0.90;;;;;;;44.31;11.46;100072.53;12207828;19;20006;-84
2022/07/13 13:37:05;;;;;;;2.53;0.90;;;;;;;45.68;10.93;100080.03;12209621;19;20090;-84
2022/07/13 13:41:07;;;;;;;2.33;0.70;;;;;;;47.12;10.12;100061.44;12214551;19;20542;-84
2022/07/13 13:45:14;;;;;;;1.15;0.80;;;;;;;47.09;10.28;100059.50;12186664;19;20086;-85
2022/07/13 13:49:24;;;;;;;2.85;0.90;;;;;;;45.61;10.70;100056.28;12206366;19;20007;-84
2022/07/13 13:53:25;;;;;;;2.13;1.05;;;;;;;43.41;11.66;100051.91;12185667;19;20030;-84
2022/07/13 13:57:27;;;;;;;3.25;0.85;;;;;;;41.43;13.13;100042.06;12206874;19;20052;-84
2022/07/13 14:01:29;;;;;;;1.13;1.00;;;;;;;39.61;14.01;100040.66;12208306;19;20022;-83
2022/07/13 14:05:31;;;;;;;5.90;1.17;;;;;;;38.85;14.99;100038.38;12188206;19;20018;-83
2022/07/13 14:09:33;;;;;;;3.03;1.30;;;;;;;37.83;17.00;100034.47;12206983;19;20029;-84
2022/07/13 14:13:35;;;;;;;4.18;1.67;;;;;;;37.81;17.22;100031.22;12197961;19;20472;-83
2022/07/13 14:17:36;;;;;;;3.70;1.27;;;;;;;37.67;17.65;100037.16;12191313;19;20011;-82
2022/07/13 14:21:38;;;;;;;3.78;1.33;;;;;;;37.74;18.60;100025.56;12210903;19;20045;-81
2022/07/13 14:25:40;;;;;;;4.55;1.67;;;;;;;37.95;18.22;100035.16;12212927;19;20390;-82
2022/07/13 14:29:41;;;;;;;4.47;1.42;;;;;;;38.07;18.19;100020.19;12191359;19;20778;-81
2022/07/13 14:33:43;;;;;;;3.13;1.40;;;;;;;38.33;18.20;100018.59;12210650;19;20040;-82
2022/07/13 14:37:45;;;;;;;5.82;1.27;;;;;;;38.28;17.65;100019.91;12207718;19;20010;-82
2022/07/13 14:42:07;;;;;;;3.25;0.82;;;;;;;38.03;16.88;100010.81;12188727;19;20735;-82
2022/07/13 14:46:08;;;;;;;2.38;0.90;;;;;;;37.76;16.75;100008.69;12215017;19;20028;-82
2022/07/13 14:50:11;;;;;;;2.35;1.08;;;;;;;37.36;17.18;100008.34;12196304;19;20062;-82
2022/07/13 14:54:32;;;;;;;2.75;1.00;;;;;;;36.96;17.74;100005.03;12212897;19;20408;-82
2022/07/13 14:58:34;;;;;;;3.25;1.02;;;;;;;36.53;17.43;99998.03;12213898;19;20010;-82
2022/07/13 15:02:36;;;;;;;1.40;0.85;;;;;;;36.25;17.23;99997.81;12193004;19;20014;-82
2022/07/13 15:06:40;;;;;;;2.92;0.90;;;;;;;35.84;16.73;99997.63;12213123;19;20010;-83
2022/07/13 15:10:42;;;;;;;1.13;0.65;;;;;;;35.34;17.03;99995.78;12214187;19;20472;-83
2022/07/13 15:14:44;;;;;;;0.80;0.70;;;;;;;35.02;17.55;99983.56;12195444;19;20042;-82
2022/07/13 15:19:08;;;;;;;1.17;0.80;;;;;;;34.90;18.27;99982.78;12216428;19;20010;-81
2022/07/13 15:23:10;;;;;;;1.15;0.80;;;;;;;36.30;17.99;99981.41;12194999;19;20003;-82
2022/07/13 15:27:12;;;;;;;1.95;0.80;;;;;;;38.21;16.89;99979.72;12221764;19;20003;-83
2022/07/13 15:31:13;;;;;;;8.23;0.82;;;;;;;38.95;16.15;99962.44;12211847;19;20073;-82
2022/07/13 15:35:15;;;;;;;2.28;0.90;;;;;;;38.69;16.67;99960.44;12196288;19;20066;-83
2022/07/13 15:39:17;;;;;;;1.27;0.70;;;;;;;38.44;16.23;99953.06;12209200;19;20038;-82
2022/07/13 15:43:18;;;;;;;0.80;0.80;;;;;;;37.29;16.90;99947.25;12204378;19;20066;-83
2022/07/13 15:47:20;;;;;;;3.35;0.85;;;;;;;36.58;17.49;99949.63;12191073;19;20027;-82
2022/07/13 15:51:22;;;;;;;2.55;1.10;;;;;;;35.72;18.38;99950.19;12216178;19;20011;-83
2022/07/13 15:55:23;;;;;;;1.63;0.90;;;;;;;35.58;18.96;99942.50;12209973;19;20007;-82
2022/07/13 15:59:25;;;;;;;2.22;0.90;;;;;;;35.38;18.90;99933.56;12196322;19;20798;-83
2022/07/13 16:03:27;;;;;;;3.95;0.82;;;;;;;34.91;19.01;99920.59;12216000;19;20405;-81
2022/07/13 16:07:29;;;;;;;4.53;0.90;;;;;;;34.47;20.01;99925.53;12210094;19;20053;-84
2022/07/13 16:11:30;;;;;;;1.08;0.80;;;;;;;34.24;20.40;99917.41;12196193;19;20409;-83
2022/07/13 16:15:33;;;;;;;2.20;0.90;;;;;;;34.26;20.69;99920.66;12223055;19;20015;-82
2022/07/13 16:19:35;;;;;;;1.48;0.98;;;;;;;34.41;20.61;99904.28;12222542;19;20003;-83
2022/07/13 16:23:51;;;;;;;3.78;1.20;;;;;;;35.14;20.12;99906.66;12196178;19;20006;-83
2022/07/13 16:27:53;;;;;;;2.55;0.88;;;;;;;34.99;20.47;99893.59;12213459;19;20011;-85
2022/07/13 16:31:55;;;;;;;;;;;;;;;34.67;20.68;99893.69;12216706;19;20023;-82
2022/07/13 16:35:58;;;;;;;4.25;1.10;;;;;;;34.59;21.26;99900.63;12191453;19;20052;-85
2022/07/13 16:40:00;;;;;;;4.43;1.08;;;;;;;34.35;21.14;99899.41;12210529;19;20010;-83
2022/07/13 16:44:02;;;;;;;3.08;0.93;;;;;;;33.94;21.89;99892.03;12205974;19;20016;-83
2022/07/13 16:48:05;;;;;;;1.35;1.00;;;;;;;33.76;21.65;99894.88;12192258;19;20026;-84
2022/07/13 16:52:07;;;;;;;1.45;1.05;;;;;;;33.69;21.49;99894.03;12205090;19;20062;-83
2022/07/13 16:56:08;;;;;;;1.50;0.85;;;;;;;33.73;21.32;99891.97;12201526;19;20610;-82
2022/07/13 17:00:11;;;;;;;1.80;0.82;;;;;;;33.95;21.07;99887.13;12208398;19;20009;-83
2022/07/13 17:04:15;;;;;;;2.90;0.75;;;;;;;34.18;20.29;99875.28;12208986;19;20487;-82
2022/07/13 17:08:17;;;;;;;2.97;1.00;;;;;;;34.36;20.48;99872.44;12187173;19;20003;-84
2022/07/13 17:12:19;;;;;;;;;;;;;;;34.17;19.29;99877.34;12213418;19;20102;-81
2022/07/13 17:16:20;;;;;;;;;;;;;;;34.06;19.26;99872.84;12203915;19;20403;-82
2022/07/13 17:20:22;;;;;;;1.17;0.70;;;;;;;33.94;19.22;99865.47;12196849;19;19914;-84
2022/07/13 17:24:24;;;;;;;2.00;0.80;;;;;;;34.00;19.26;99867.53;12216065;19;20055;-83
2022/07/13 17:28:25;;;;;;;;;;;;;;;34.14;19.48;99865.91;12219081;19;20066;-83
2022/07/13 17:32:27;;;;;;;2.97;0.80;;;;;;;34.35;19.31;99870.81;12193075;19;19914;-82
2022/07/13 17:36:32;;;;;;;;;;;;;;;34.33;19.31;99861.81;12210331;19;20267;-82
2022/07/13 17:40:33;;;;;;;2.55;0.98;;;;;;;34.11;19.09;99866.72;12218301;19;19921;-83
2022/07/13 17:44:35;;;;;;;1.92;1.00;;;;;;;33.88;19.40;99865.06;12195609;19;20038;-82
2022/07/13 17:48:38;;;;;;;2.28;0.90;;;;;;;33.54;19.65;99864.59;12213905;19;20552;-84
2022/07/13 17:52:39;;;;;;;1.67;0.80;;;;;;;33.24;20.24;99853.47;12212985;19;20011;-81
2022/07/13 17:56:41;;;;;;;5.20;1.33;;;;;;;33.04;20.37;99867.25;12185338;19;20003;-80
2022/07/13 18:00:43;;;;;;;2.15;0.80;;;;;;;32.96;20.30;99854.13;12209215;19;20014;-84
2022/07/13 18:04:52;;;;;;;2.30;1.20;;;;;;;32.98;20.54;99866.81;12211390;19;20095;-83
2022/07/13 18:08:54;;;;;;;4.15;0.90;;;;;;;32.86;20.47;99861.44;12185827;19;20019;-84
2022/07/13 18:12:56;;;;;;;4.10;0.73;;;;;;;32.77;20.62;99873.22;12205547;19;20484;-83
2022/07/13 18:16:58;;;;;;;5.45;1.17;;;;;;;32.66;20.89;99866.63;12228547;19;20475;-82
2022/07/13 18:20:59;;;;;;;4.53;0.90;;;;;;;32.55;21.07;99863.72;12199408;19;20857;-82
2022/07/13 18:25:02;;;;;;;2.78;1.00;;;;;;;32.43;21.28;99858.31;12223180;19;20028;-82
2022/07/13 18:29:04;;;;;;;2.83;0.90;;;;;;;32.30;21.37;99865.53;12224440;19;20010;-82
2022/07/13 18:33:06;;;;;;;4.38;1.10;;;;;;;32.19;21.17;99860.59;12196363;19;20066;-80
2022/07/13 18:37:07;;;;;;;3.30;1.20;;;;;;;32.21;21.14;99857.31;12226180;19;20006;-82
2022/07/13 18:41:09;;;;;;;4.70;1.08;;;;;;;32.20;21.36;99859.38;12213638;19;20023;-82
2022/07/13 18:45:11;;;;;;;3.25;0.82;;;;;;;32.15;21.85;99862.56;12218311;19;20014;-82
2022/07/13 18:49:12;;;;;;;2.50;1.08;;;;;;;32.05;21.92;99854.75;12216901;19;20082;-81
2022/07/13 18:53:14;;;;;;;6.68;1.40;;;;;;;31.90;21.79;99853.00;12196908;19;20026;-81
2022/07/13 18:57:16;;;;;;;5.75;1.23;;;;;;;31.72;22.05;99862.19;12222637;19;20479;-83
2022/07/13 19:01:17;;;;;;;9.48;1.40;;;;;;;31.51;22.38;99867.66;12220650;19;20018;-82
2022/07/13 19:05:19;;;;;;;1.60;1.02;;;;;;;31.24;22.67;99864.88;12193993;19;20069;-81